sensor_id;sensor_type;location;lat;lon;timestamp;pressure;altitude;pressure_sealevel;temperature;humidity
19576;BME280;41589;51.196;7.074;2023-02-02T00:03:11;99363.66;;;8.18;100.00
19576;BME280;41589;51.196;7.074;2023-02-02T00:08:11;99365.78;;;8.13;100.00
19576;BME280;41589;51.196;7.074;2023-02-02T00:13:12;99357.16;;;8.21;100.00
19576;BME280;41589;51.196;7.074;2023-02-02T00:18:13;99356.03;;;8.18;100.00
19576;BME280;41589;51.196;7.074;2023-02-02T00:23:14;99365.66;;;8.17;100.00
19576;BME280;41589;51.196;7.074;2023-02-02T00:28:14;99357.59;;;8.19;100.00
19576;BME280;41589;51.196;7.074;2023-02-02T00:33:15;99351.66;;;8.17;100.00
19576;BME280;41589;51.196;7.074;2023-02-02T00:38:15;99347.94;;;8.20;100.00
19576;BME280;41589;51.196;7.074;2023-02-02T00:43:15;99341.41;;;8.10;100.00
19576;BME280;41589;51.196;7.074;2023-02-02T00:48:16;99351.69;;;8.01;100.00
19576;BME280;41589;51.196;7.074;2023-02-02T00:53:16;99346.78;;;8.05;100.00
19576;BME280;41589;51.196;7.074;2023-02-02T00:58:17;99338.28;;;7.92;100.00
19576;BME280;41589;51.196;7.074;2023-02-02T01:03:17;99333.47;;;7.93;100.00
19576;BME280;41589;51.196;7.074;2023-02-02T01:08:18;99355.13;;;7.92;100.00
19576;BME280;41589;51.196;7.074;2023-02-02T01:13:18;99353.94;;;7.90;100.00
19576;BME280;41589;51.196;7.074;2023-02-02T01:18:18;99351.97;;;7.90;100.00
19576;BME280;41589;51.196;7.074;2023-02-02T01:23:19;99366.41;;;7.89;100.00
19576;BME280;41589;51.196;7.074;2023-02-02T01:28:20;99372.09;;;7.85;100.00
19576;BME280;41589;51.196;7.074;2023-02-02T01:33:21;99377.59;;;7.89;100.00
19576;BME280;41589;51.196;7.074;2023-02-02T01:38:22;99364.31;;;7.93;100.00
19576;BME280;41589;51.196;7.074;2023-02-02T01:49:07;99384.63;;;7.97;100.00
19576;BME280;41589;51.196;7.074;2023-02-02T01:54:12;99390.50;;;8.02;99.36
19576;BME280;41589;51.196;7.074;2023-02-02T01:59:15;99391.09;;;8.10;99.56
19576;BME280;41589;51.196;7.074;2023-02-02T02:04:17;99388.72;;;8.08;98.90
19576;BME280;41589;51.196;7.074;2023-02-02T02:09:18;99395.50;;;8.11;98.54
19576;BME280;41589;51.196;7.074;2023-02-02T02:14:20;99387.41;;;8.13;98.44
19576;BME280;41589;51.196;7.074;2023-02-02T02:20:14;99394.25;;;8.12;99.65
19576;BME280;41589;51.196;7.074;2023-02-02T02:36:50;99390.84;;;8.04;98.89
19576;BME280;41589;51.196;7.074;2023-02-02T02:41:59;99381.97;;;8.06;98.74
19576;BME280;41589;51.196;7.074;2023-02-02T02:47:03;99384.16;;;8.15;99.93
19576;BME280;41589;51.196;7.074;2023-02-02T02:52:03;99377.78;;;8.14;98.22
19576;BME280;41589;51.196;7.074;2023-02-02T03:13:31;99381.84;;;7.80;98.99
19576;BME280;41589;51.196;7.074;2023-02-02T03:18:32;99390.03;;;7.88;98.35
19576;BME280;41589;51.196;7.074;2023-02-02T03:23:33;99386.81;;;7.89;98.72
19576;BME280;41589;51.196;7.074;2023-02-02T03:28:33;99386.56;;;7.83;98.55
19576;BME280;41589;51.196;7.074;2023-02-02T03:33:35;99379.19;;;7.90;98.29
19576;BME280;41589;51.196;7.074;2023-02-02T03:38:36;99376.47;;;7.86;98.50
19576;BME280;41589;51.196;7.074;2023-02-02T03:43:37;99387.69;;;7.86;97.96
19576;BME280;41589;51.196;7.074;2023-02-02T03:48:37;99389.53;;;7.93;98.82
19576;BME280;41589;51.196;7.074;2023-02-02T03:53:41;99386.56;;;7.83;97.37
19576;BME280;41589;51.196;7.074;2023-02-02T03:58:46;99399.63;;;7.90;98.33
19576;BME280;41589;51.196;7.074;2023-02-02T04:03:49;99382.44;;;7.88;98.29
19576;BME280;41589;51.196;7.074;2023-02-02T04:08:49;99395.59;;;7.91;97.89
19576;BME280;41589;51.196;7.074;2023-02-02T04:13:50;99408.38;;;7.92;97.57
19576;BME280;41589;51.196;7.074;2023-02-02T04:18:50;99403.63;;;7.89;97.36
19576;BME280;41589;51.196;7.074;2023-02-02T04:23:51;99407.94;;;7.94;96.93
19576;BME280;41589;51.196;7.074;2023-02-02T04:28:52;99415.00;;;7.98;98.03
19576;BME280;41589;51.196;7.074;2023-02-02T04:33:52;99423.88;;;7.80;99.05
19576;BME280;41589;51.196;7.074;2023-02-02T04:38:53;99424.38;;;7.75;100.00
19576;BME280;41589;51.196;7.074;2023-02-02T04:43:54;99418.78;;;7.59;100.00
19576;BME280;41589;51.196;7.074;2023-02-02T04:48:57;99424.31;;;7.43;100.00
19576;BME280;41589;51.196;7.074;2023-02-02T04:53:57;99431.16;;;7.42;100.00
19576;BME280;41589;51.196;7.074;2023-02-02T04:58:58;99426.00;;;7.40;100.00
19576;BME280;41589;51.196;7.074;2023-02-02T05:03:58;99426.06;;;7.37;100.00
19576;BME280;41589;51.196;7.074;2023-02-02T05:08:59;99433.91;;;7.25;100.00
19576;BME280;41589;51.196;7.074;2023-02-02T05:14:00;99424.00;;;7.21;100.00
19576;BME280;41589;51.196;7.074;2023-02-02T05:19:00;99429.97;;;7.23;100.00
19576;BME280;41589;51.196;7.074;2023-02-02T05:24:01;99439.88;;;7.28;100.00
19576;BME280;41589;51.196;7.074;2023-02-02T05:29:02;99423.78;;;7.32;100.00
19576;BME280;41589;51.196;7.074;2023-02-02T05:34:03;99421.75;;;7.32;100.00
19576;BME280;41589;51.196;7.074;2023-02-02T05:39:06;99431.09;;;7.25;100.00
19576;BME280;41589;51.196;7.074;2023-02-02T05:44:08;99429.38;;;7.32;100.00
19576;BME280;41589;51.196;7.074;2023-02-02T05:49:12;99410.03;;;7.37;100.00
19576;BME280;41589;51.196;7.074;2023-02-02T05:54:14;99415.03;;;7.30;100.00
19576;BME280;41589;51.196;7.074;2023-02-02T05:59:18;99424.91;;;7.34;100.00
19576;BME280;41589;51.196;7.074;2023-02-02T06:04:19;99432.25;;;7.28;100.00
19576;BME280;41589;51.196;7.074;2023-02-02T06:09:20;99447.47;;;7.27;100.00
19576;BME280;41589;51.196;7.074;2023-02-02T06:14:33;99420.78;;;7.22;100.00
19576;BME280;41589;51.196;7.074;2023-02-02T06:19:34;99437.09;;;7.28;100.00
19576;BME280;41589;51.196;7.074;2023-02-02T06:24:34;99451.78;;;7.32;100.00
19576;BME280;41589;51.196;7.074;2023-02-02T06:29:35;99450.25;;;7.27;100.00
19576;BME280;41589;51.196;7.074;2023-02-02T06:34:35;99437.88;;;7.28;100.00
19576;BME280;41589;51.196;7.074;2023-02-02T06:39:38;99469.28;;;7.36;100.00
19576;BME280;41589;51.196;7.074;2023-02-02T06:44:38;99451.88;;;7.28;100.00
19576;BME280;41589;51.196;7.074;2023-02-02T06:49:48;99456.72;;;7.24;100.00
19576;BME280;41589;51.196;7.074;2023-02-02T06:54:49;99462.78;;;7.22;100.00
19576;BME280;41589;51.196;7.074;2023-02-02T06:59:52;99459.97;;;7.22;100.00
19576;BME280;41589;51.196;7.074;2023-02-02T07:04:53;99460.84;;;7.19;100.00
19576;BME280;41589;51.196;7.074;2023-02-02T07:09:59;99468.59;;;7.12;100.00
19576;BME280;41589;51.196;7.074;2023-02-02T07:15:03;99473.69;;;7.17;100.00
19576;BME280;41589;51.196;7.074;2023-02-02T07:20:07;99472.88;;;7.16;100.00
19576;BME280;41589;51.196;7.074;2023-02-02T07:25:08;99486.19;;;7.12;100.00
19576;BME280;41589;51.196;7.074;2023-02-02T07:30:09;99480.88;;;7.18;100.00
19576;BME280;41589;51.196;7.074;2023-02-02T07:35:10;99489.19;;;7.21;100.00
19576;BME280;41589;51.196;7.074;2023-02-02T07:40:11;99487.31;;;7.15;100.00
19576;BME280;41589;51.196;7.074;2023-02-02T07:45:13;99498.38;;;7.22;100.00
19576;BME280;41589;51.196;7.074;2023-02-02T07:50:15;99490.91;;;7.15;100.00
19576;BME280;41589;51.196;7.074;2023-02-02T07:55:16;99496.38;;;7.22;100.00
19576;BME280;41589;51.196;7.074;2023-02-02T08:00:17;99491.00;;;7.32;100.00
19576;BME280;41589;51.196;7.074;2023-02-02T08:05:18;99492.47;;;7.16;100.00
19576;BME280;41589;51.196;7.074;2023-02-02T08:10:18;99504.75;;;7.03;100.00
19576;BME280;41589;51.196;7.074;2023-02-02T08:15:19;99501.59;;;7.01;100.00
19576;BME280;41589;51.196;7.074;2023-02-02T08:20:23;99517.88;;;7.06;100.00
19576;BME280;41589;51.196;7.074;2023-02-02T08:25:23;99512.72;;;7.04;100.00
19576;BME280;41589;51.196;7.074;2023-02-02T08:30:24;99525.66;;;6.98;100.00
19576;BME280;41589;51.196;7.074;2023-02-02T08:35:25;99511.88;;;7.07;100.00
19576;BME280;41589;51.196;7.074;2023-02-02T08:40:25;99517.84;;;7.09;100.00
19576;BME280;41589;51.196;7.074;2023-02-02T08:45:26;99531.25;;;6.98;100.00
19576;BME280;41589;51.196;7.074;2023-02-02T08:50:36;99533.19;;;7.01;100.00
19576;BME280;41589;51.196;7.074;2023-02-02T08:55:36;99545.47;;;7.07;100.00
19576;BME280;41589;51.196;7.074;2023-02-02T09:00:37;99553.00;;;7.10;100.00
19576;BME280;41589;51.196;7.074;2023-02-02T09:05:37;99556.81;;;7.00;100.00
19576;BME280;41589;51.196;7.074;2023-02-02T09:10:38;99566.34;;;7.03;100.00
19576;BME280;41589;51.196;7.074;2023-02-02T09:15:41;99567.91;;;7.04;100.00
19576;BME280;41589;51.196;7.074;2023-02-02T09:20:42;99561.50;;;7.07;100.00
19576;BME280;41589;51.196;7.074;2023-02-02T09:25:42;99580.13;;;7.13;100.00
19576;BME280;41589;51.196;7.074;2023-02-02T09:30:43;99596.94;;;7.13;100.00
19576;BME280;41589;51.196;7.074;2023-02-02T09:35:43;99595.06;;;7.07;100.00
19576;BME280;41589;51.196;7.074;2023-02-02T09:40:45;99615.03;;;7.09;100.00
19576;BME280;41589;51.196;7.074;2023-02-02T09:45:55;99613.06;;;7.06;100.00
19576;BME280;41589;51.196;7.074;2023-02-02T09:51:02;99610.69;;;7.04;100.00
19576;BME280;41589;51.196;7.074;2023-02-02T09:56:12;99623.47;;;7.05;100.00
19576;BME280;41589;51.196;7.074;2023-02-02T10:01:34;99635.06;;;7.07;100.00
19576;BME280;41589;51.196;7.074;2023-02-02T10:06:46;99648.56;;;7.12;100.00
19576;BME280;41589;51.196;7.074;2023-02-02T10:17:30;99667.34;;;7.12;100.00
19576;BME280;41589;51.196;7.074;2023-02-02T10:22:35;99672.34;;;7.24;100.00
19576;BME280;41589;51.196;7.074;2023-02-02T10:27:39;99675.94;;;7.24;100.00
19576;BME280;41589;51.196;7.074;2023-02-02T10:33:02;99685.97;;;7.22;100.00
19576;BME280;41589;51.196;7.074;2023-02-02T10:38:27;99685.91;;;7.25;100.00
19576;BME280;41589;51.196;7.074;2023-02-02T10:48:48;99689.94;;;7.24;100.00
19576;BME280;41589;51.196;7.074;2023-02-02T10:54:19;99688.97;;;7.35;100.00
19576;BME280;41589;51.196;7.074;2023-02-02T11:04:58;99687.19;;;7.44;100.00
19576;BME280;41589;51.196;7.074;2023-02-02T11:10:20;99688.47;;;7.40;100.00
19576;BME280;41589;51.196;7.074;2023-02-02T11:15:29;99696.88;;;7.40;100.00
19576;BME280;41589;51.196;7.074;2023-02-02T11:20:34;99696.94;;;7.36;100.00
19576;BME280;41589;51.196;7.074;2023-02-02T11:25:38;99696.34;;;7.48;100.00
19576;BME280;41589;51.196;7.074;2023-02-02T11:30:39;99705.13;;;7.47;100.00
19576;BME280;41589;51.196;7.074;2023-02-02T11:36:04;99704.31;;;7.50;100.00
19576;BME280;41589;51.196;7.074;2023-02-02T11:41:08;99711.91;;;7.49;100.00
19576;BME280;41589;51.196;7.074;2023-02-02T11:46:21;99704.94;;;7.58;100.00
19576;BME280;41589;51.196;7.074;2023-02-02T11:51:33;99700.81;;;7.42;100.00
19576;BME280;41589;51.196;7.074;2023-02-02T11:56:35;99700.63;;;7.53;100.00
19576;BME280;41589;51.196;7.074;2023-02-02T12:01:40;99689.06;;;7.51;100.00
19576;BME280;41589;51.196;7.074;2023-02-02T12:06:43;99696.63;;;7.54;100.00
19576;BME280;41589;51.196;7.074;2023-02-02T12:22:41;99695.38;;;7.55;100.00
19576;BME280;41589;51.196;7.074;2023-02-02T12:28:05;99695.59;;;7.44;100.00
19576;BME280;41589;51.196;7.074;2023-02-02T12:38:37;99700.06;;;7.62;100.00
19576;BME280;41589;51.196;7.074;2023-02-02T12:43:49;99689.78;;;7.55;100.00
19576;BME280;41589;51.196;7.074;2023-02-02T12:49:21;99707.13;;;7.70;100.00
19576;BME280;41589;51.196;7.074;2023-02-02T13:15:35;99702.91;;;7.81;100.00
19576;BME280;41589;51.196;7.074;2023-02-02T13:20:45;99696.00;;;7.86;100.00
19576;BME280;41589;51.196;7.074;2023-02-02T13:25:51;99698.53;;;7.80;100.00
19576;BME280;41589;51.196;7.074;2023-02-02T13:30:55;99713.16;;;7.88;100.00
19576;BME280;41589;51.196;7.074;2023-02-02T13:36:02;99703.38;;;7.76;100.00
19576;BME280;41589;51.196;7.074;2023-02-02T13:41:07;99701.59;;;7.86;100.00
19576;BME280;41589;51.196;7.074;2023-02-02T13:51:26;99717.34;;;7.80;100.00
19576;BME280;41589;51.196;7.074;2023-02-02T13:56:38;99709.00;;;7.76;100.00
19576;BME280;41589;51.196;7.074;2023-02-02T14:01:47;99710.88;;;7.83;100.00
19576;BME280;41589;51.196;7.074;2023-02-02T14:07:08;99726.41;;;7.88;100.00
19576;BME280;41589;51.196;7.074;2023-02-02T14:12:10;99715.25;;;7.84;100.00
19576;BME280;41589;51.196;7.074;2023-02-02T14:22:18;99721.53;;;7.92;100.00
19576;BME280;41589;51.196;7.074;2023-02-02T14:32:31;99721.88;;;7.94;100.00
19576;BME280;41589;51.196;7.074;2023-02-02T14:37:46;99730.38;;;7.90;100.00
19576;BME280;41589;51.196;7.074;2023-02-02T14:48:30;99735.25;;;7.86;100.00
19576;BME280;41589;51.196;7.074;2023-02-02T14:53:32;99736.56;;;8.01;100.00
19576;BME280;41589;51.196;7.074;2023-02-02T14:58:52;99745.88;;;7.95;100.00
19576;BME280;41589;51.196;7.074;2023-02-02T15:14:24;99748.56;;;8.02;100.00
19576;BME280;41589;51.196;7.074;2023-02-02T15:19:31;99749.34;;;8.02;100.00
19576;BME280;41589;51.196;7.074;2023-02-02T15:24:36;99762.16;;;8.03;100.00
19576;BME280;41589;51.196;7.074;2023-02-02T15:29:42;99774.41;;;7.90;100.00
19576;BME280;41589;51.196;7.074;2023-02-02T15:34:47;99771.59;;;7.90;100.00
19576;BME280;41589;51.196;7.074;2023-02-02T15:39:51;99781.34;;;8.05;100.00
19576;BME280;41589;51.196;7.074;2023-02-02T15:44:52;99775.16;;;7.94;100.00
19576;BME280;41589;51.196;7.074;2023-02-02T15:49:52;99781.03;;;7.99;100.00
19576;BME280;41589;51.196;7.074;2023-02-02T15:54:55;99792.69;;;7.98;100.00
19576;BME280;41589;51.196;7.074;2023-02-02T15:59:56;99804.75;;;7.95;100.00
19576;BME280;41589;51.196;7.074;2023-02-02T16:04:57;99804.69;;;7.98;100.00
19576;BME280;41589;51.196;7.074;2023-02-02T16:10:03;99807.44;;;8.02;100.00
19576;BME280;41589;51.196;7.074;2023-02-02T16:15:18;99815.25;;;7.91;100.00
19576;BME280;41589;51.196;7.074;2023-02-02T16:20:19;99818.06;;;7.91;100.00
19576;BME280;41589;51.196;7.074;2023-02-02T16:25:21;99819.75;;;7.84;100.00
19576;BME280;41589;51.196;7.074;2023-02-02T16:30:26;99830.09;;;7.88;100.00
19576;BME280;41589;51.196;7.074;2023-02-02T16:35:35;99832.91;;;7.88;100.00
19576;BME280;41589;51.196;7.074;2023-02-02T16:40:36;99835.72;;;7.88;100.00
19576;BME280;41589;51.196;7.074;2023-02-02T16:45:48;99840.09;;;7.89;100.00
19576;BME280;41589;51.196;7.074;2023-02-02T16:56:03;99847.78;;;7.84;100.00
19576;BME280;41589;51.196;7.074;2023-02-02T17:01:07;99857.66;;;7.93;100.00
19576;BME280;41589;51.196;7.074;2023-02-02T17:06:10;99847.16;;;7.97;100.00
19576;BME280;41589;51.196;7.074;2023-02-02T17:11:25;99854.06;;;7.92;100.00
19576;BME280;41589;51.196;7.074;2023-02-02T17:16:26;99849.25;;;7.93;100.00
19576;BME280;41589;51.196;7.074;2023-02-02T17:21:26;99847.16;;;7.97;100.00
19576;BME280;41589;51.196;7.074;2023-02-02T17:26:26;99842.63;;;7.83;100.00
19576;BME280;41589;51.196;7.074;2023-02-02T17:31:27;99847.06;;;7.80;100.00
19576;BME280;41589;51.196;7.074;2023-02-02T17:36:27;99856.56;;;7.87;100.00
19576;BME280;41589;51.196;7.074;2023-02-02T17:41:28;99857.25;;;7.94;100.00
19576;BME280;41589;51.196;7.074;2023-02-02T17:46:28;99856.09;;;7.92;100.00
19576;BME280;41589;51.196;7.074;2023-02-02T17:51:30;99871.72;;;7.89;100.00
19576;BME280;41589;51.196;7.074;2023-02-02T17:56:30;99872.59;;;7.86;100.00
19576;BME280;41589;51.196;7.074;2023-02-02T18:01:31;99873.38;;;7.87;100.00
19576;BME280;41589;51.196;7.074;2023-02-02T18:06:32;99877.50;;;7.78;100.00
19576;BME280;41589;51.196;7.074;2023-02-02T18:11:32;99875.03;;;7.84;100.00
19576;BME280;41589;51.196;7.074;2023-02-02T18:16:33;99873.13;;;7.77;100.00
19576;BME280;41589;51.196;7.074;2023-02-02T18:21:33;99880.63;;;7.84;100.00
19576;BME280;41589;51.196;7.074;2023-02-02T18:26:34;99878.13;;;7.90;100.00
19576;BME280;41589;51.196;7.074;2023-02-02T18:31:34;99873.25;;;7.94;100.00
19576;BME280;41589;51.196;7.074;2023-02-02T18:36:35;99883.09;;;7.82;100.00
19576;BME280;41589;51.196;7.074;2023-02-02T18:41:36;99884.94;;;7.89;100.00
19576;BME280;41589;51.196;7.074;2023-02-02T18:46:36;99886.50;;;7.93;100.00
19576;BME280;41589;51.196;7.074;2023-02-02T18:51:37;99887.56;;;7.99;100.00
19576;BME280;41589;51.196;7.074;2023-02-02T18:56:37;99881.31;;;7.92;100.00
19576;BME280;41589;51.196;7.074;2023-02-02T19:01:38;99879.72;;;7.91;100.00
19576;BME280;41589;51.196;7.074;2023-02-02T19:06:38;99876.53;;;7.89;100.00
19576;BME280;41589;51.196;7.074;2023-02-02T19:11:57;99863.63;;;7.95;100.00
19576;BME280;41589;51.196;7.074;2023-02-02T19:17:15;99867.66;;;7.94;100.00
19576;BME280;41589;51.196;7.074;2023-02-02T19:22:21;99853.88;;;8.03;100.00
19576;BME280;41589;51.196;7.074;2023-02-02T19:27:24;99861.94;;;8.01;100.00
19576;BME280;41589;51.196;7.074;2023-02-02T19:32:31;99877.81;;;8.07;100.00
19576;BME280;41589;51.196;7.074;2023-02-02T19:37:33;99883.38;;;8.11;100.00
19576;BME280;41589;51.196;7.074;2023-02-02T19:42:53;99885.31;;;8.14;100.00
19576;BME280;41589;51.196;7.074;2023-02-02T19:47:56;99891.66;;;8.18;100.00
19576;BME280;41589;51.196;7.074;2023-02-02T19:52:56;99891.22;;;8.23;100.00
19576;BME280;41589;51.196;7.074;2023-02-02T19:58:00;99891.22;;;8.20;100.00
19576;BME280;41589;51.196;7.074;2023-02-02T20:03:06;99884.81;;;8.19;100.00
19576;BME280;41589;51.196;7.074;2023-02-02T20:08:37;99879.66;;;8.18;100.00
19576;BME280;41589;51.196;7.074;2023-02-02T20:13:44;99892.81;;;8.21;100.00
19576;BME280;41589;51.196;7.074;2023-02-02T20:18:50;99886.41;;;8.20;100.00
19576;BME280;41589;51.196;7.074;2023-02-02T20:23:52;99880.94;;;8.13;100.00
19576;BME280;41589;51.196;7.074;2023-02-02T20:28:55;99877.63;;;8.18;100.00
19576;BME280;41589;51.196;7.074;2023-02-02T20:39:32;99869.22;;;8.18;100.00
19576;BME280;41589;51.196;7.074;2023-02-02T20:44:34;99874.81;;;8.22;100.00
19576;BME280;41589;51.196;7.074;2023-02-02T20:49:35;99876.75;;;8.21;100.00
19576;BME280;41589;51.196;7.074;2023-02-02T20:54:37;99878.34;;;8.26;100.00
19576;BME280;41589;51.196;7.074;2023-02-02T20:59:38;99881.59;;;8.21;100.00
19576;BME280;41589;51.196;7.074;2023-02-02T21:04:38;99885.94;;;8.25;100.00
19576;BME280;41589;51.196;7.074;2023-02-02T21:09:47;99892.34;;;8.26;100.00
19576;BME280;41589;51.196;7.074;2023-02-02T21:14:48;99895.44;;;8.31;100.00
19576;BME280;41589;51.196;7.074;2023-02-02T21:19:49;99901.78;;;8.35;100.00
19576;BME280;41589;51.196;7.074;2023-02-02T21:24:49;99915.81;;;8.35;100.00
19576;BME280;41589;51.196;7.074;2023-02-02T21:29:50;99923.09;;;8.33;100.00
19576;BME280;41589;51.196;7.074;2023-02-02T21:34:50;99925.50;;;8.31;100.00
19576;BME280;41589;51.196;7.074;2023-02-02T21:39:54;99938.44;;;8.25;100.00
19576;BME280;41589;51.196;7.074;2023-02-02T21:45:19;99941.69;;;8.23;100.00
19576;BME280;41589;51.196;7.074;2023-02-02T21:50:38;99939.31;;;8.18;100.00
19576;BME280;41589;51.196;7.074;2023-02-02T21:55:39;99945.72;;;8.19;100.00
19576;BME280;41589;51.196;7.074;2023-02-02T22:00:40;99936.09;;;8.20;100.00
19576;BME280;41589;51.196;7.074;2023-02-02T22:05:41;99932.94;;;8.18;100.00
19576;BME280;41589;51.196;7.074;2023-02-02T22:10:42;99928.91;;;8.19;100.00
19576;BME280;41589;51.196;7.074;2023-02-02T22:15:44;99913.28;;;8.18;100.00
19576;BME280;41589;51.196;7.074;2023-02-02T22:20:52;99916.97;;;8.15;100.00
19576;BME280;41589;51.196;7.074;2023-02-02T22:25:59;99906.44;;;8.22;100.00
19576;BME280;41589;51.196;7.074;2023-02-02T22:30:59;99912.06;;;8.19;100.00
19576;BME280;41589;51.196;7.074;2023-02-02T22:36:09;99924.88;;;8.20;100.00
19576;BME280;41589;51.196;7.074;2023-02-02T22:41:09;99928.88;;;8.22;100.00
19576;BME280;41589;51.196;7.074;2023-02-02T22:46:10;99923.28;;;8.22;100.00
19576;BME280;41589;51.196;7.074;2023-02-02T22:51:10;99929.19;;;8.28;100.00
19576;BME280;41589;51.196;7.074;2023-02-02T22:56:11;99905.03;;;8.34;100.00
19576;BME280;41589;51.196;7.074;2023-02-02T23:01:11;99922.34;;;8.29;100.00
19576;BME280;41589;51.196;7.074;2023-02-02T23:06:12;99899.19;;;8.25;100.00
19576;BME280;41589;51.196;7.074;2023-02-02T23:11:13;99902.00;;;8.21;100.00
19576;BME280;41589;51.196;7.074;2023-02-02T23:16:16;99901.56;;;8.26;100.00
19576;BME280;41589;51.196;7.074;2023-02-02T23:21:16;99893.94;;;8.27;100.00
19576;BME280;41589;51.196;7.074;2023-02-02T23:26:17;99902.72;;;8.29;100.00
19576;BME280;41589;51.196;7.074;2023-02-02T23:31:18;99899.47;;;8.30;100.00
19576;BME280;41589;51.196;7.074;2023-02-02T23:36:19;99892.63;;;8.31;100.00
19576;BME280;41589;51.196;7.074;2023-02-02T23:41:19;99899.47;;;8.30;100.00
19576;BME280;41589;51.196;7.074;2023-02-02T23:46:21;99878.34;;;8.26;100.00
19576;BME280;41589;51.196;7.074;2023-02-02T23:51:22;99879.78;;;8.34;100.00
19576;BME280;41589;51.196;7.074;2023-02-02T23:56:23;99860.88;;;8.38;100.00
